Etusivu
METAR-TAF:

METAR-TAF

Lentoasemat :

Bou Saada, Algeria

Leveyspiiri: 35-20N, Pituuspiiri: 004-12E, korkeus merenpinnasta: 461 m

Tämänhetkinen sää

Tämä raportti tehtiin 52 minuuttia sitten, kello 06.00 UTC
Tuuli 3 kn pohjoisen/luoteesta
Lämpötila 22°C
Kosteus 41%
Ilmanpaine 1021 hPa
Näkyvyys 10 km tai enemmän
ei pilviä alle 1500 m:ssä eikä cumulonimbus-pilviä

METAR: DAAD 140600Z 33003KT CAVOK 22/08 Q1021

Aika: 07:52 (06:52 UTC)

Sääennuste

Tämä raportti tehtiin 13 tuntia ja 52 minuuttia sitten, kello 17.00 UTC
Ennuste voimassa 13. päivästä klo 18 UTC - 14. päivään klo 03 UTC
Tuuli 8 kn pohjoisen/luoteesta
Näkyvyys 10 km tai enemmän
Muutamia pilviä 3000 ft:n korkeudessa
Hajanaisia pilviä 20000 ft:n korkeudessa

TAF: DAAD 131700Z 1318/1403 34008KT 9999 FEW030 SCT200

Säähavainnot ja -ennusteet yli 4000 lentoasemalta (METAR- ja TAF-raportit).

Käytössä olevat sääasemat on merkitty karttaan keltaisilla ja punaisilla pisteillä.

Aseta hiiri pisteen päälle nähdäksesi sääaseman nimen.

Klikkaa sitten nähdäksesi säähavainnot ja -ennusteet.

Kartan vaihtaminen: klikkaa mustalla rastilla varustettuja vihreitä pisteitä, niin voit zoomata sisään; viivalla varustettua vihreää pistettä, niin voit zoomata ulos tai vihreitä nuolia, niin pääset viereisille kartoille.


METAR-TAF: